Flight Track Log - Related Links

Times and Time Zones

All times are in EDT time to prevent confusion due to time zone crossing. See the FLG3408 flight status page for this flight to view local times or setup timezone preferences in your user account.

Time Position Orientation Groundspeed Altitude Reporting Facility
EDT Latitude Longitude Course Direction KTS MPH feet Rate Location/Type
Mon 07:39:17 PM 35.8967 -78.7767 24° Northeast 164 189 1,400  Level Washington Center
Mon 07:40:17 PM 35.9453 -78.7503 24° Northeast 197 227 3,800 2,231 Climbing Washington Center
Mon 07:41:18 PM 35.9961 -78.8011 321° Northwest 290 334 5,900 2,607 Climbing Washington Center
Mon 07:42:19 PM 36.0186 -78.8972 286° West 279 321 9,100 2,876 Climbing Washington Center
Mon 07:43:19 PM 36.0242 -79.0000 274° West 288 331 11,700 2,557 Climbing Washington Center
Mon 07:44:21 PM 36.0272 -79.1106 272° West 311 358 14,300 2,300 Climbing Washington Center
Mon 07:45:19 PM 36.0592 -79.2225 289° West 335 386 16,300 1,815 Climbing Washington Center
Mon 07:46:20 PM 36.1322 -79.2903 323° Northwest 342 394 17,900 1,820 Climbing Washington Center
Mon 07:47:21 PM 36.2256 -79.3822 322° Northwest 366 421 20,000 2,150 Climbing Washington Center
Mon 07:48:20 PM 36.3083 -79.4633 322° Northwest 379 436 22,200 1,750 Climbing Washington Center
Mon 07:49:21 PM 36.3831 -79.5419 320° Northwest 386 444 23,500 1,623 Climbing Washington Center
Mon 07:50:22 PM 36.4781 -79.6347 322° Northwest 392 451 25,500 1,881 Climbing Washington Center
Mon 07:51:19 PM 36.5647 -79.7244 320° Northwest 392 451 27,200 1,692 Climbing Washington Center
Mon 07:52:19 PM 36.6317 -79.8342 307° West 392 451 28,800 1,587 Climbing Washington Center
Mon 07:53:20 PM 36.6922 -79.9489 303° West 399 459 30,400 1,231 Climbing Washington Center
Mon 07:54:55 PM 36.7800 -80.1253 302° West 396 456 32,000 619 Climbing Atlanta Center
Mon 07:55:55 PM 36.8422 -80.2467 303° West 406 467 32,000  Level Atlanta Center
Mon 07:56:55 PM 36.9042 -80.3658 303° West 406 467 32,000  Level Atlanta Center
Mon 07:58:26 PM 37.0047 -80.5472 305° West 411 473 32,000  Level Indianapolis Center
Mon 07:59:28 PM 37.0625 -80.6633 302° West 404 465 32,000  Level Indianapolis Center
Mon 08:00:30 PM 37.1719 -80.7619 324° Northwest 411 473 32,000  Level Indianapolis Center
Mon 08:01:31 PM 37.2733 -80.8203 335° Northwest 408 470 32,000  Level Indianapolis Center
Mon 08:02:33 PM 37.3775 -80.8817 335° Northwest 419 482 32,000  Level Indianapolis Center
Mon 08:03:35 PM 37.4811 -80.9428 335° Northwest 420 483 32,000  Level Indianapolis Center
Mon 08:04:36 PM 37.6086 -81.0158 336° Northwest 426 490 32,000  Level Indianapolis Center
Mon 08:05:38 PM 37.7214 -81.0539 345° North 429 494 32,000  Level Indianapolis Center
Mon 08:06:40 PM 37.8331 -81.0917 345° North 427 491 32,000  Level Indianapolis Center
Mon 08:07:41 PM 37.9486 -81.1303 345° North 428 493 32,000  Level Indianapolis Center
Mon 08:08:43 PM 38.0631 -81.1697 345° North 425 489 32,000  Level Indianapolis Center
Mon 08:09:45 PM 38.1747 -81.2186 341° North 423 487 32,000  Level Indianapolis Center
Mon 08:10:46 PM 38.3072 -81.2825 339° North 424 488 32,000  Level Indianapolis Center
Mon 08:11:48 PM 38.4164 -81.3344 340° North 419 482 32,000  Level Indianapolis Center
Mon 08:12:50 PM 38.5297 -81.3717 346° North 421 484 32,000  Level Indianapolis Center
Mon 08:13:52 PM 38.6444 -81.3950 351° North 423 487 32,000  Level Indianapolis Center
Mon 08:14:53 PM 38.7728 -81.4261 349° North 419 482 32,000  Level Indianapolis Center
Mon 08:15:55 PM 38.8950 -81.4522 351° North 430 495 32,000  Level Indianapolis Center
Mon 08:16:57 PM 39.0089 -81.4869 347° North 424 488 32,000  Level Indianapolis Center
Mon 08:17:59 PM 39.1217 -81.5253 345° North 420 483 32,000  Level Indianapolis Center
Mon 08:19:01 PM 39.2367 -81.5628 346° North 425 489 32,000  Level Indianapolis Center
Mon 08:20:02 PM 39.3500 -81.6014 345° North 424 488 32,000  Level Indianapolis Center
Mon 08:21:04 PM 39.4642 -81.6392 346° North 423 487 32,000  Level Indianapolis Center
Mon 08:22:06 PM 39.6014 -81.6872 345° North 426 490 32,000  Level Indianapolis Center
Mon 08:23:08 PM 39.7181 -81.7272 345° North 426 490 32,000  Level Indianapolis Center
Mon 08:24:10 PM 39.8325 -81.7644 346° North 427 491 32,000  Level Indianapolis Center
Mon 08:25:11 PM 39.9469 -81.8050 345° North 427 491 32,000 -293 Level Indianapolis Center
Mon 08:26:13 PM 40.0625 -81.8439 346° North 429 494 31,400 -581 Descending Indianapolis Center
Mon 08:28:00 PM 40.2231 -81.8969 346° North  Level FlightAware Approximate
Mon 08:28:17 PM 40.2944 -81.9239 346° North 427 491 30,200  Level Indianapolis Center
Mon 08:29:18 PM 40.4269 -81.9706 345° North 420 483 30,000 -98 Descending Indianapolis Center
Mon 08:30:20 PM 40.5431 -82.0092 346° North 424 488 30,000  Level Indianapolis Center
Mon 08:31:22 PM 40.6519 -82.0753 335° Northwest 426 490 30,000  Level Indianapolis Center
Mon 08:32:24 PM 40.7592 -82.1442 334° Northwest 424 488 30,000 -585 Level Indianapolis Center
Mon 08:33:25 PM 40.8664 -82.2122 334° Northwest 423 487 28,800 -1,561 Descending Indianapolis Center
Mon 08:34:27 PM 40.9725 -82.2825 333° Northwest 421 484 26,800 -1,984 Descending Indianapolis Center
Mon 08:35:29 PM 41.0736 -82.3492 334° Northwest 405 466 24,700 -1,445 Descending Indianapolis Center
Mon 08:36:44 PM 41.1906 -82.4228 335° Northwest 396 456 23,500 -1,620 Descending Cleveland Center
Mon 08:37:46 PM 41.3025 -82.4964 334° Northwest 382 440 21,000 -2,226 Descending Cleveland Center
Mon 08:38:48 PM 41.3981 -82.5603 333° Northwest 380 437 18,900 -1,839 Descending Cleveland Center
Mon 08:39:50 PM 41.4925 -82.6222 334° Northwest 375 432 17,200 -1,780 Descending Cleveland Center
Mon 08:40:19 PM 41.5369 -82.6547 331° Northwest 370 426 16,200 -2,129 Descending Cleveland Center
Mon 08:40:52 PM 41.5833 -82.6836 335° Northwest 364 419 15,000 -2,372 Descending Cleveland Center
Mon 08:41:02 PM 41.6050 -82.6997 331° Northwest 359 413 14,500 -1,839 Descending Cleveland Center
Mon 08:41:54 PM 41.6664 -82.7375 335° Northwest 356 410 13,100 -1,967 Descending Cleveland Center
Mon 08:42:03 PM 41.6906 -82.7583 327° Northwest 347 399 12,500 -984 Descending Cleveland Center
Mon 08:42:55 PM 41.7481 -82.8022 330° Northwest 344 396 12,100 -400 Descending Cleveland Center
Mon 08:43:03 PM 41.7708 -82.8358 312° West 344 396 12,100  Level Cleveland Center
Mon 08:44:04 PM 41.8422 -82.9181 319° Northwest 346 398 12,100  Level Cleveland Center
Mon 08:44:59 PM 41.9053 -82.9919 319° Northwest 348 400 12,100  Level Cleveland Center
Mon 08:45:05 PM 41.9131 -83.0061 306° West 349 402 12,100  Level Cleveland Center
Mon 08:46:01 PM 41.9767 -83.0806 319° Northwest 350 403 12,100  Level Cleveland Center
Mon 08:46:06 PM 41.9864 -83.0919 319° Northwest 350 403 12,100  Level Cleveland Center
Mon 08:47:03 PM 42.0486 -83.1667 318° Northwest 348 400 12,100  Level Cleveland Center
Mon 08:47:07 PM 42.0611 -83.1836 315° West 344 396 12,100 -103 Level Cleveland Center
Mon 08:48:01 PM 42.1289 -83.2550 322° Northwest 335 386 12,000 -105 Descending Cleveland Center
Mon 08:48:04 PM 42.1283 -83.2528 109° East 333 383 12,000 -1,475 Level Cleveland Center
Mon 08:49:02 PM 42.2089 -83.2236 15° North 293 337 10,500 -1,548 Descending Cleveland Center
Mon 08:49:06 PM 42.2106 -83.2203 56° Northeast 312 359 10,400 -2,557 Descending Cleveland Center
Mon 08:50:03 PM 42.2833 -83.1806 22° Northeast 281 323 7,900 -2,516 Descending Cleveland Center
Mon 08:50:08 PM 42.2869 -83.1769 36° Northeast 289 333 7,800 -2,361 Descending Cleveland Center
Mon 08:51:04 PM 42.3553 -83.1453 19° North 278 320 5,500 -2,361 Descending Cleveland Center
Mon 08:51:09 PM 42.3578 -83.1428 36° Northeast 279 321 5,400 -1,475 Descending Cleveland Center
Mon 08:52:05 PM 42.3833 -83.2142 296° West 234 269 4,000 -1,355 Descending Cleveland Center
Mon 08:52:11 PM 42.3831 -83.2106 96° East 252 290 4,000 -1,000 Level Cleveland Center
Mon 08:53:05 PM 42.3325 -83.2494 210° Southwest 185 213 3,000 -968 Descending Cleveland Center
Mon 08:53:13 PM 42.3314 -83.2500 200° South 224 258 3,000 -492 Level Cleveland Center
Mon 08:54:06 PM 42.2925 -83.2806 210° Southwest 149 171 2,500 -492 Descending Cleveland Center
Mon 08:54:14 PM 42.2914 -83.2794 144° Southeast 188 216 2,500 -787 Level Cleveland Center
Mon 08:55:07 PM 42.2544 -83.3092 211° Southwest 150 173 1,700 -871 Descending Cleveland Center
Mon 08:55:16 PM 42.2547 -83.3072 79° East 164 189 1,600 -338 Descending Cleveland Center
Mon 08:56:18 PM 42.2119 -83.3386 209° Southwest 158 182 1,300 -290 Descending Cleveland Center

Login

Don't have an account? Register now (free) for customized features, flight alerts, and more!